Time;durP1;ratioP1;P1;durP2;ratioP2;P2;SDS_P1;SDS_P2;PMS_P1;PMS_P2;Temp;Humidity;BMP_temperature;BMP_pressure;BME280_temperature;BME280_humidity;BME280_pressure;Samples;Min_cycle;Max_cycle;Signal;HPM_P1;HPM_P2
2023/04/01 00:01:26;;;;;;;3.93;0.70;;;;;;;;;;5083143;28;20032;-63
2023/04/01 00:03:53;;;;;;;3.40;0.98;;;;;;;;;;5102406;28;20436;-62
2023/04/01 00:06:18;;;;;;;2.80;0.60;;;;;;;;;;5090593;28;20351;-63
2023/04/01 00:08:44;;;;;;;4.20;0.70;;;;;;;;;;5089875;28;20078;-63
2023/04/01 00:11:10;;;;;;;4.38;0.60;;;;;;;;;;5096397;28;20213;-62
2023/04/01 00:13:35;;;;;;;2.78;0.60;;;;;;;;;;5094769;28;20505;-64
2023/04/01 00:16:01;;;;;;;2.67;0.43;;;;;;;;;;5091589;28;20103;-63
2023/04/01 00:18:26;;;;;;;3.40;0.65;;;;;;;;;;5092448;28;20506;-63
2023/04/01 00:20:52;;;;;;;2.90;0.40;;;;;;;;;;5083292;28;20024;-62
2023/04/01 00:23:17;;;;;;;3.20;0.70;;;;;;;;;;5097276;28;20473;-62
2023/04/01 00:25:43;;;;;;;2.33;0.47;;;;;;;;;;5099734;28;20023;-63
2023/04/01 00:28:09;;;;;;;2.72;0.52;;;;;;;;;;5078724;28;20022;-63
2023/04/01 00:30:35;;;;;;;2.53;0.60;;;;;;;;;;5086146;28;20016;-63
2023/04/01 00:33:00;;;;;;;3.08;0.60;;;;;;;;;;5090865;28;20016;-63
2023/04/01 00:35:26;;;;;;;1.85;0.40;;;;;;;;;;5090749;28;20032;-63
2023/04/01 00:37:51;;;;;;;2.03;0.60;;;;;;;;;;5090306;28;20463;-63
2023/04/01 00:40:28;;;;;;;2.73;0.60;;;;;;;;;;5087910;28;20024;-63
2023/04/01 00:42:53;;;;;;;2.75;0.60;;;;;;;;;;5102897;28;20019;-63
2023/04/01 00:45:24;;;;;;;4.10;0.57;;;;;;;;;;5098935;28;20505;-63
2023/04/01 00:47:50;;;;;;;3.05;0.45;;;;;;;;;;5101256;28;20030;-63
2023/04/01 00:50:15;;;;;;;4.13;0.77;;;;;;;;;;5096089;28;20112;-63
2023/04/01 00:52:40;;;;;;;2.28;0.50;;;;;;;;;;5097497;28;20386;-63
2023/04/01 00:55:06;;;;;;;3.97;0.60;;;;;;;;;;5092507;28;20055;-62
2023/04/01 00:57:34;;;;;;;4.03;0.68;;;;;;;;;;5088562;28;20050;-62
2023/04/01 00:59:59;;;;;;;2.90;0.55;;;;;;;;;;5087113;28;20007;-62
2023/04/01 01:02:24;;;;;;;5.13;0.70;;;;;;;;;;5087296;28;20031;-62
2023/04/01 01:04:50;;;;;;;2.08;0.60;;;;;;;;;;5091976;28;20086;-62
2023/04/01 01:07:27;;;;;;;2.55;0.50;;;;;;;;;;5090630;28;20095;-62
2023/04/01 01:09:52;;;;;;;3.33;0.63;;;;;;;;;;5082962;28;20031;-63
2023/04/01 01:12:25;;;;;;;2.07;0.40;;;;;;;;;;5102189;28;20099;-63
2023/04/01 01:15:04;;;;;;;3.40;0.52;;;;;;;;;;5096073;28;20110;-63
2023/04/01 01:17:33;;;;;;;3.65;0.52;;;;;;;;;;5090970;28;20545;-64
2023/04/01 01:20:01;;;;;;;4.45;0.55;;;;;;;;;;5075316;28;20034;-65
2023/04/01 01:22:35;;;;;;;1.30;0.40;;;;;;;;;;5088908;28;20086;-64
2023/04/01 01:25:29;;;;;;;4.60;0.63;;;;;;;;;;5095024;28;20243;-63
2023/04/01 01:28:00;;;;;;;1.70;0.38;;;;;;;;;;5037668;28;20029;-63
2023/04/01 01:30:44;;;;;;;2.78;0.50;;;;;;;;;;5093669;28;20487;-63
2023/04/01 01:33:24;;;;;;;2.88;0.50;;;;;;;;;;5087100;28;20535;-64
2023/04/01 01:35:52;;;;;;;3.38;0.50;;;;;;;;;;5081442;28;20020;-62
2023/04/01 01:38:19;;;;;;;3.30;0.57;;;;;;;;;;5091720;28;20397;-62
2023/04/01 01:40:46;;;;;;;2.00;0.40;;;;;;;;;;5098879;28;20030;-62
2023/04/01 01:43:13;;;;;;;3.47;0.57;;;;;;;;;;5085035;28;20031;-63
2023/04/01 01:45:42;;;;;;;2.25;0.40;;;;;;;;;;5101688;28;20107;-62
2023/04/01 01:48:08;;;;;;;5.28;0.60;;;;;;;;;;5093790;28;20012;-63
2023/04/01 01:50:35;;;;;;;4.75;0.60;;;;;;;;;;5099777;28;20020;-63
2023/04/01 01:53:01;;;;;;;2.22;0.50;;;;;;;;;;5096537;28;20027;-63
2023/04/01 01:55:31;;;;;;;2.55;0.50;;;;;;;;;;5098333;28;20031;-63
2023/04/01 01:58:01;;;;;;;2.47;0.50;;;;;;;;;;5100151;28;20066;-63
2023/04/01 02:00:27;;;;;;;3.15;0.52;;;;;;;;;;5092971;28;20552;-64
2023/04/01 02:02:52;;;;;;;3.63;0.50;;;;;;;;;;5095791;28;20210;-63
2023/04/01 02:05:22;;;;;;;2.97;0.75;;;;;;;;;;5085032;28;20028;-62
2023/04/01 02:07:51;;;;;;;3.20;0.50;;;;;;;;;;5102002;28;20020;-63
2023/04/01 02:10:17;;;;;;;2.28;0.50;;;;;;;;;;5093156;28;20085;-62
2023/04/01 02:12:45;;;;;;;3.45;0.63;;;;;;;;;;5096047;28;20024;-63
2023/04/01 02:15:12;;;;;;;3.33;0.50;;;;;;;;;;5086438;28;20027;-63
2023/04/01 02:17:39;;;;;;;2.63;0.40;;;;;;;;;;5098405;28;20020;-63
2023/04/01 02:20:10;;;;;;;2.95;0.57;;;;;;;;;;5087310;28;20023;-62
2023/04/01 02:22:38;;;;;;;3.08;0.50;;;;;;;;;;5097884;28;20058;-63
2023/04/01 02:25:08;;;;;;;2.35;0.50;;;;;;;;;;5086141;28;20043;-62
2023/04/01 02:27:33;;;;;;;3.13;0.93;;;;;;;;;;5104310;28;20094;-64
2023/04/01 02:29:58;;;;;;;3.92;0.70;;;;;;;;;;5087569;28;20150;-64
2023/04/01 02:32:24;;;;;;;4.10;0.70;;;;;;;;;;5086019;28;20181;-64
2023/04/01 02:34:50;;;;;;;4.60;0.68;;;;;;;;;;5102420;28;20457;-62
2023/04/01 02:37:15;;;;;;;3.05;0.60;;;;;;;;;;5080202;28;20107;-63
2023/04/01 02:39:42;;;;;;;3.27;0.50;;;;;;;;;;5087010;28;20020;-63
2023/04/01 02:42:07;;;;;;;4.20;0.65;;;;;;;;;;5094319;28;20103;-63
2023/04/01 02:44:32;;;;;;;3.42;0.70;;;;;;;;;;5094933;28;20464;-63
2023/04/01 02:46:57;;;;;;;3.60;0.70;;;;;;;;;;5101301;28;20027;-63
2023/04/01 02:49:23;;;;;;;5.63;0.68;;;;;;;;;;5100572;28;20077;-63
2023/04/01 02:51:48;;;;;;;3.20;0.70;;;;;;;;;;5091079;28;20419;-63
2023/04/01 02:54:13;;;;;;;4.10;0.60;;;;;;;;;;5099203;28;20016;-63
2023/04/01 02:56:38;;;;;;;3.45;0.70;;;;;;;;;;5081525;28;20485;-63
2023/04/01 02:59:03;;;;;;;4.80;0.80;;;;;;;;;;5087387;28;20051;-62
2023/04/01 03:01:29;;;;;;;3.25;0.60;;;;;;;;;;5075186;28;20029;-62
2023/04/01 03:03:54;;;;;;;4.88;0.70;;;;;;;;;;5097856;28;20057;-63
2023/04/01 03:06:19;;;;;;;3.50;0.70;;;;;;;;;;5087668;28;20026;-63
2023/04/01 03:08:44;;;;;;;3.77;0.90;;;;;;;;;;5092238;28;20020;-63
2023/04/01 03:11:10;;;;;;;3.75;0.70;;;;;;;;;;5082708;28;20069;-63
2023/04/01 03:13:35;;;;;;;4.25;1.00;;;;;;;;;;5099811;28;20506;-63
2023/04/01 03:16:00;;;;;;;3.10;0.50;;;;;;;;;;5100585;28;20027;-63
2023/04/01 03:18:25;;;;;;;5.00;1.00;;;;;;;;;;5083676;28;20024;-62
2023/04/01 03:20:51;;;;;;;2.97;0.60;;;;;;;;;;5092685;28;20020;-62
2023/04/01 03:23:19;;;;;;;4.60;0.70;;;;;;;;;;5094081;28;20565;-62
2023/04/01 03:25:44;;;;;;;3.55;0.60;;;;;;;;;;5085633;28;20031;-63
2023/04/01 03:28:10;;;;;;;3.53;0.73;;;;;;;;;;5099097;28;20016;-62
2023/04/01 03:30:35;;;;;;;2.13;0.52;;;;;;;;;;5098584;28;20032;-62
2023/04/01 03:33:00;;;;;;;3.40;0.65;;;;;;;;;;5095238;28;20028;-63
2023/04/01 03:35:26;;;;;;;4.07;0.90;;;;;;;;;;5081435;28;20495;-64
2023/04/01 03:37:51;;;;;;;3.28;0.80;;;;;;;;;;5080348;28;20102;-63
2023/04/01 03:40:16;;;;;;;4.70;0.80;;;;;;;;;;5097228;28;20028;-63
2023/04/01 03:42:42;;;;;;;3.57;0.70;;;;;;;;;;5095783;28;20066;-63
2023/04/01 03:45:07;;;;;;;4.40;0.60;;;;;;;;;;5099208;28;20028;-63
2023/04/01 03:47:32;;;;;;;4.40;0.60;;;;;;;;;;5107001;28;20016;-63
2023/04/01 03:49:57;;;;;;;3.47;0.73;;;;;;;;;;5089904;28;20473;-63
2023/04/01 03:52:22;;;;;;;5.30;0.95;;;;;;;;;;5085289;28;20020;-63
2023/04/01 03:54:48;;;;;;;3.87;0.80;;;;;;;;;;5083799;28;20031;-63
2023/04/01 03:57:13;;;;;;;1.93;0.53;;;;;;;;;;5088747;28;20015;-63
2023/04/01 03:59:38;;;;;;;6.35;1.05;;;;;;;;;;5089452;28;20433;-63
2023/04/01 04:02:03;;;;;;;5.00;0.77;;;;;;;;;;5090206;28;20475;-63
2023/04/01 04:04:29;;;;;;;3.53;0.60;;;;;;;;;;5082608;28;20030;-63
2023/04/01 04:06:55;;;;;;;4.15;0.70;;;;;;;;;;5095865;28;20450;-62
2023/04/01 04:09:20;;;;;;;4.88;0.57;;;;;;;;;;5092739;28;20074;-61
2023/04/01 04:11:45;;;;;;;4.43;0.73;;;;;;;;;;5092885;28;20024;-62
2023/04/01 04:14:10;;;;;;;2.95;0.60;;;;;;;;;;5089009;28;20541;-62
2023/04/01 04:16:38;;;;;;;3.90;0.60;;;;;;;;;;5097004;28;20471;-62
2023/04/01 04:19:03;;;;;;;4.15;0.75;;;;;;;;;;5092136;28;20020;-62
2023/04/01 04:21:29;;;;;;;3.27;0.70;;;;;;;;;;5089510;28;20043;-62
2023/04/01 04:23:54;;;;;;;3.63;0.90;;;;;;;;;;5093367;28;20019;-61
2023/04/01 04:26:19;;;;;;;3.67;0.70;;;;;;;;;;5086300;28;20387;-62
2023/04/01 04:28:44;;;;;;;3.33;0.60;;;;;;;;;;5077874;28;21024;-62
2023/04/01 04:31:10;;;;;;;3.20;0.65;;;;;;;;;;5087091;28;20465;-62
2023/04/01 04:33:35;;;;;;;4.73;0.80;;;;;;;;;;5088420;28;20351;-63
2023/04/01 04:36:00;;;;;;;3.10;0.60;;;;;;;;;;5089034;28;20058;-61
2023/04/01 04:38:25;;;;;;;4.60;0.60;;;;;;;;;;5085278;28;20031;-62
2023/04/01 04:40:50;;;;;;;4.70;0.63;;;;;;;;;;5095661;28;20016;-63
2023/04/01 04:43:16;;;;;;;3.07;0.70;;;;;;;;;;5083251;28;20032;-62
2023/04/01 04:45:42;;;;;;;6.13;0.80;;;;;;;;;;5095929;28;20482;-62
2023/04/01 04:48:08;;;;;;;4.28;0.70;;;;;;;;;;5092751;28;20017;-63
2023/04/01 04:50:33;;;;;;;4.25;0.70;;;;;;;;;;5085078;28;20391;-62
2023/04/01 04:52:58;;;;;;;5.82;0.82;;;;;;;;;;5097789;28;20039;-62
2023/04/01 04:55:23;;;;;;;2.80;0.57;;;;;;;;;;5091103;28;20027;-61
2023/04/01 04:57:48;;;;;;;6.63;0.80;;;;;;;;;;5081953;28;20063;-61
2023/04/01 05:00:14;;;;;;;3.55;0.75;;;;;;;;;;5089228;28;20058;-62
2023/04/01 05:02:39;;;;;;;4.75;0.70;;;;;;;;;;5085685;28;20005;-62
2023/04/01 05:05:04;;;;;;;5.03;0.80;;;;;;;;;;5093371;28;20012;-62
2023/04/01 05:07:30;;;;;;;3.42;0.80;;;;;;;;;;5092966;28;20017;-62
2023/04/01 05:09:55;;;;;;;2.70;0.60;;;;;;;;;;5098294;28;20027;-62
2023/04/01 05:12:20;;;;;;;2.87;0.50;;;;;;;;;;5085452;28;20013;-62
2023/04/01 05:14:45;;;;;;;3.07;0.63;;;;;;;;;;5088343;28;20013;-62
2023/04/01 05:17:11;;;;;;;4.37;0.60;;;;;;;;;;5083529;28;20471;-62
2023/04/01 05:19:36;;;;;;;3.55;0.82;;;;;;;;;;5084048;28;20510;-63
2023/04/01 05:22:02;;;;;;;2.80;0.97;;;;;;;;;;5078407;28;20045;-62
2023/04/01 05:24:27;;;;;;;2.93;0.53;;;;;;;;;;5078148;28;20450;-61
2023/04/01 05:26:52;;;;;;;6.20;0.93;;;;;;;;;;5077308;28;20035;-62
2023/04/01 05:29:17;;;;;;;2.00;0.50;;;;;;;;;;5082689;28;20538;-61
2023/04/01 05:31:42;;;;;;;3.27;0.53;;;;;;;;;;5079826;28;20032;-62
2023/04/01 05:34:08;;;;;;;3.40;0.57;;;;;;;;;;5099460;28;20470;-62
2023/04/01 05:36:33;;;;;;;2.83;0.53;;;;;;;;;;5094877;28;20031;-62
2023/04/01 05:38:58;;;;;;;3.17;0.50;;;;;;;;;;5090353;28;20016;-62
2023/04/01 05:41:23;;;;;;;2.60;0.60;;;;;;;;;;5089147;28;20031;-63
2023/04/01 05:43:48;;;;;;;1.83;0.37;;;;;;;;;;5100965;28;20097;-62
2023/04/01 05:46:13;;;;;;;3.03;0.60;;;;;;;;;;5103237;28;20044;-63
2023/04/01 05:48:38;;;;;;;4.65;0.65;;;;;;;;;;5099798;28;20034;-62
2023/04/01 05:51:04;;;;;;;3.63;0.70;;;;;;;;;;5101505;28;20038;-63
2023/04/01 05:53:29;;;;;;;3.90;0.70;;;;;;;;;;5107452;28;20028;-63
2023/04/01 05:55:55;;;;;;;3.67;0.75;;;;;;;;;;5105227;28;20028;-63
2023/04/01 05:58:20;;;;;;;3.57;0.50;;;;;;;;;;5100240;28;20046;-63
2023/04/01 06:00:45;;;;;;;3.22;0.70;;;;;;;;;;5098162;28;20024;-63
2023/04/01 06:03:10;;;;;;;4.20;0.85;;;;;;;;;;5101866;28;20122;-63
2023/04/01 06:05:39;;;;;;;2.78;0.40;;;;;;;;;;5083740;28;20020;-63
2023/04/01 06:08:09;;;;;;;3.60;0.80;;;;;;;;;;5082150;28;20372;-63
2023/04/01 06:10:43;;;;;;;3.40;0.60;;;;;;;;;;5084767;28;20020;-63
2023/04/01 06:13:20;;;;;;;3.75;0.65;;;;;;;;;;5077490;28;20019;-66
2023/04/01 06:16:03;;;;;;;3.22;0.65;;;;;;;;;;5090884;28;20084;-64
2023/04/01 06:18:38;;;;;;;3.28;1.00;;;;;;;;;;5084013;28;20158;-64
2023/04/01 06:21:24;;;;;;;4.20;0.70;;;;;;;;;;5091578;28;20020;-63
2023/04/01 06:23:57;;;;;;;5.30;1.13;;;;;;;;;;5083539;28;20081;-62
2023/04/01 06:26:28;;;;;;;3.67;0.90;;;;;;;;;;5079762;28;20075;-64
2023/04/01 06:29:08;;;;;;;3.30;0.80;;;;;;;;;;5101627;28;20012;-63
2023/04/01 06:31:41;;;;;;;5.00;0.98;;;;;;;;;;5096044;28;20475;-64
2023/04/01 06:34:06;;;;;;;4.68;0.90;;;;;;;;;;5094136;28;20024;-63
2023/04/01 06:36:37;;;;;;;5.97;0.80;;;;;;;;;;5072939;28;20047;-63
2023/04/01 06:39:09;;;;;;;5.22;1.05;;;;;;;;;;5079502;28;20024;-63
2023/04/01 06:41:47;;;;;;;4.90;0.68;;;;;;;;;;5082110;28;20028;-64
2023/04/01 06:44:16;;;;;;;3.15;0.80;;;;;;;;;;5086433;28;20020;-64
2023/04/01 06:46:53;;;;;;;4.72;0.70;;;;;;;;;;5080668;28;20103;-63
2023/04/01 06:49:41;;;;;;;3.65;0.60;;;;;;;;;;5099185;28;20035;-63
2023/04/01 06:52:25;;;;;;;3.97;0.68;;;;;;;;;;5061562;28;20040;-63
2023/04/01 06:54:58;;;;;;;2.65;0.80;;;;;;;;;;5093762;28;20027;-64
2023/04/01 06:57:35;;;;;;;3.88;0.60;;;;;;;;;;5085202;28;20035;-64
2023/04/01 07:00:03;;;;;;;3.42;0.70;;;;;;;;;;5099806;28;20042;-63
2023/04/01 07:02:43;;;;;;;3.58;0.55;;;;;;;;;;5095861;28;20028;-63
2023/04/01 07:05:10;;;;;;;4.20;0.80;;;;;;;;;;5076623;28;20106;-61
2023/04/01 07:07:41;;;;;;;3.47;0.60;;;;;;;;;;5073603;28;20024;-62
2023/04/01 07:10:12;;;;;;;3.45;0.57;;;;;;;;;;5075967;28;20023;-64
2023/04/01 07:12:42;;;;;;;2.45;0.50;;;;;;;;;;5080268;28;20024;-62
2023/04/01 07:15:16;;;;;;;2.10;0.52;;;;;;;;;;5082689;28;20035;-63
2023/04/01 07:17:42;;;;;;;4.03;0.70;;;;;;;;;;5079903;28;20146;-63
2023/04/01 07:20:15;;;;;;;4.65;1.20;;;;;;;;;;5084227;28;20013;-64
2023/04/01 07:22:45;;;;;;;4.50;0.80;;;;;;;;;;5080950;28;20026;-63
2023/04/01 07:25:13;;;;;;;5.40;1.58;;;;;;;;;;5080912;28;20089;-63
2023/04/01 07:27:38;;;;;;;3.35;0.50;;;;;;;;;;5082613;28;20016;-63
2023/04/01 07:30:12;;;;;;;3.37;1.00;;;;;;;;;;5075087;28;20356;-63
2023/04/01 07:32:59;;;;;;;4.57;0.95;;;;;;;;;;5097131;28;20476;-63
2023/04/01 07:35:33;;;;;;;3.25;0.68;;;;;;;;;;5076876;28;20033;-62
2023/04/01 07:37:58;;;;;;;4.32;0.95;;;;;;;;;;5075898;28;20099;-62
2023/04/01 07:40:23;;;;;;;3.42;1.10;;;;;;;;;;5072653;28;20104;-62
2023/04/01 07:42:48;;;;;;;4.07;0.70;;;;;;;;;;5088092;28;20150;-62
2023/04/01 07:45:13;;;;;;;4.78;0.80;;;;;;;;;;5084632;28;20084;-63
2023/04/01 07:47:52;;;;;;;3.70;1.00;;;;;;;;;;5080709;28;20428;-62
2023/04/01 07:50:22;;;;;;;4.53;1.40;;;;;;;;;;5091112;28;20031;-61
2023/04/01 07:52:52;;;;;;;3.85;0.95;;;;;;;;;;5089242;28;20035;-61
2023/04/01 07:55:24;;;;;;;5.72;1.30;;;;;;;;;;5071428;28;20069;-61
2023/04/01 07:57:56;;;;;;;2.30;0.70;;;;;;;;;;5080292;28;20596;-61
2023/04/01 08:00:35;;;;;;;3.30;0.70;;;;;;;;;;5089565;28;20073;-62
2023/04/01 08:03:14;;;;;;;5.07;0.85;;;;;;;;;;5088472;28;20024;-62
2023/04/01 08:05:41;;;;;;;2.65;0.50;;;;;;;;;;5091853;28;20016;-62
2023/04/01 08:08:12;;;;;;;2.38;0.60;;;;;;;;;;5090935;28;20379;-64
2023/04/01 08:10:51;;;;;;;4.70;0.70;;;;;;;;;;5082097;28;20032;-62
2023/04/01 08:13:34;;;;;;;3.97;0.50;;;;;;;;;;5076474;28;20055;-64
2023/04/01 08:16:12;;;;;;;3.50;0.80;;;;;;;;;;5089443;28;20024;-62
2023/04/01 08:18:46;;;;;;;3.47;0.73;;;;;;;;;;5090665;28;20065;-63
2023/04/01 08:21:19;;;;;;;3.85;0.70;;;;;;;;;;5091546;28;20584;-63
2023/04/01 08:23:47;;;;;;;4.90;0.70;;;;;;;;;;5080570;28;20025;-63
2023/04/01 08:26:23;;;;;;;3.47;0.63;;;;;;;;;;5071275;28;20023;-62
2023/04/01 08:28:57;;;;;;;4.60;0.60;;;;;;;;;;5088142;28;20023;-63
2023/04/01 08:31:31;;;;;;;4.38;1.30;;;;;;;;;;5089756;28;20020;-63
2023/04/01 08:33:56;;;;;;;2.08;0.45;;;;;;;;;;5091300;28;20012;-63
2023/04/01 08:36:27;;;;;;;2.25;0.45;;;;;;;;;;5086145;28;20019;-63
2023/04/01 08:39:03;;;;;;;2.65;0.50;;;;;;;;;;5073600;28;20077;-63
2023/04/01 08:41:28;;;;;;;2.75;0.57;;;;;;;;;;5089473;28;20028;-62
2023/04/01 08:44:17;;;;;;;1.85;0.40;;;;;;;;;;5087821;28;20077;-61
2023/04/01 08:46:52;;;;;;;3.45;0.40;;;;;;;;;;5081524;28;20117;-64
2023/04/01 08:49:36;;;;;;;3.25;0.40;;;;;;;;;;5096290;28;20024;-63
2023/04/01 08:52:01;;;;;;;;;;;;;;;;;;5087934;28;20047;-63
2023/04/01 08:54:35;;;;;;;1.42;0.50;;;;;;;;;;5096167;28;19908;-63
2023/04/01 08:57:06;;;;;;;2.63;0.35;;;;;;;;;;5079749;28;20412;-63
2023/04/01 08:59:45;;;;;;;2.70;0.40;;;;;;;;;;5089870;28;20403;-62
2023/04/01 09:02:29;;;;;;;3.00;0.40;;;;;;;;;;5086735;28;20045;-63
2023/04/01 09:05:02;;;;;;;2.10;0.40;;;;;;;;;;5091512;28;20399;-63
2023/04/01 09:07:44;;;;;;;1.77;0.40;;;;;;;;;;5101545;28;20019;-65
2023/04/01 09:10:34;;;;;;;2.63;0.40;;;;;;;;;;5085945;28;20027;-63
2023/04/01 09:13:14;;;;;;;2.15;0.50;;;;;;;;;;5078552;28;20429;-64
2023/04/01 09:15:49;;;;;;;5.88;0.50;;;;;;;;;;5090108;28;20074;-63
2023/04/01 09:18:23;;;;;;;2.53;0.50;;;;;;;;;;5079018;28;20019;-63
2023/04/01 09:21:03;;;;;;;1.80;0.43;;;;;;;;;;5088152;28;20020;-64
2023/04/01 09:23:37;;;;;;;3.00;0.40;;;;;;;;;;5091321;28;20044;-62
2023/04/01 09:26:08;;;;;;;3.47;0.60;;;;;;;;;;5096826;28;20065;-62
2023/04/01 09:28:47;;;;;;;3.47;0.60;;;;;;;;;;5087370;28;20024;-63
2023/04/01 09:31:18;;;;;;;1.90;0.43;;;;;;;;;;5088500;28;20051;-64
2023/04/01 09:34:01;;;;;;;3.60;0.40;;;;;;;;;;5079067;28;20020;-63
2023/04/01 09:36:27;;;;;;;;;;;;;;;;;;5093940;28;20536;-63
2023/04/01 09:39:11;;;;;;;3.03;0.50;;;;;;;;;;5086891;28;19908;-63
2023/04/01 09:41:45;;;;;;;1.92;0.47;;;;;;;;;;5080186;28;20028;-64
2023/04/01 09:44:42;;;;;;;1.65;0.50;;;;;;;;;;5087950;28;20364;-65
2023/04/01 09:47:10;;;;;;;5.25;0.70;;;;;;;;;;5034845;28;20028;-63
2023/04/01 09:49:54;;;;;;;2.85;0.70;;;;;;;;;;5085559;28;20403;-64
2023/04/01 09:52:37;;;;;;;1.80;0.40;;;;;;;;;;5073071;28;20673;-63
2023/04/01 09:55:14;;;;;;;2.72;0.40;;;;;;;;;;5082071;28;20442;-63
2023/04/01 09:57:42;;;;;;;4.68;0.70;;;;;;;;;;5082065;28;20024;-62
2023/04/01 10:00:10;;;;;;;5.03;0.60;;;;;;;;;;5077100;28;20024;-62
2023/04/01 10:02:51;;;;;;;2.33;0.70;;;;;;;;;;5088273;28;20487;-63
2023/04/01 10:05:31;;;;;;;9.02;2.20;;;;;;;;;;5085448;28;20531;-63
2023/04/01 10:08:12;;;;;;;5.00;0.82;;;;;;;;;;5079950;28;20025;-65
2023/04/01 10:11:00;;;;;;;5.10;1.05;;;;;;;;;;5082271;28;20033;-63
2023/04/01 10:13:48;;;;;;;10.55;2.90;;;;;;;;;;5063090;28;20437;-62
2023/04/01 10:16:22;;;;;;;15.00;4.65;;;;;;;;;;5036086;28;20033;-63
2023/04/01 10:19:00;;;;;;;15.90;5.38;;;;;;;;;;5071814;28;20020;-62
2023/04/01 10:21:37;;;;;;;8.75;2.80;;;;;;;;;;5074766;28;20537;-63
2023/04/01 10:24:11;;;;;;;8.77;3.40;;;;;;;;;;5077594;28;20020;-62
2023/04/01 10:26:53;;;;;;;4.18;1.15;;;;;;;;;;5073099;28;20108;-63
2023/04/01 10:29:26;;;;;;;4.40;1.38;;;;;;;;;;5085676;28;20016;-64
2023/04/01 10:32:05;;;;;;;1.90;0.50;;;;;;;;;;5083447;28;20034;-63
2023/04/01 10:34:49;;;;;;;2.53;0.60;;;;;;;;;;5085526;28;20202;-62
2023/04/01 10:37:14;;;;;;;1.58;0.50;;;;;;;;;;5084999;28;20030;-63
2023/04/01 10:39:39;;;;;;;4.07;0.50;;;;;;;;;;5083759;28;20593;-63
2023/04/01 10:42:04;;;;;;;2.17;0.47;;;;;;;;;;5083110;28;20103;-64
2023/04/01 10:44:48;;;;;;;2.55;0.50;;;;;;;;;;5091059;28;20039;-63
2023/04/01 10:47:13;;;;;;;;;;;;;;;;;;5076610;28;20028;-64
2023/04/01 10:49:42;;;;;;;3.08;0.60;;;;;;;;;;5082793;28;19927;-65
2023/04/01 10:52:26;;;;;;;4.03;0.63;;;;;;;;;;5079763;28;20423;-63
2023/04/01 10:55:00;;;;;;;3.95;0.90;;;;;;;;;;5092592;28;20558;-64
2023/04/01 10:57:43;;;;;;;4.70;0.90;;;;;;;;;;5076633;28;20387;-63
2023/04/01 11:00:26;;;;;;;3.55;0.80;;;;;;;;;;5086909;28;20025;-64
2023/04/01 11:03:08;;;;;;;3.60;0.68;;;;;;;;;;5080441;28;20020;-64
2023/04/01 11:05:33;;;;;;;3.45;0.52;;;;;;;;;;5077606;28;20023;-63
2023/04/01 11:08:01;;;;;;;2.93;0.70;;;;;;;;;;5079914;28;20024;-63
2023/04/01 11:10:41;;;;;;;3.08;0.70;;;;;;;;;;5070919;28;20024;-63
2023/04/01 11:13:12;;;;;;;2.60;0.52;;;;;;;;;;5088997;28;20670;-64
2023/04/01 11:15:56;;;;;;;2.97;0.60;;;;;;;;;;5078858;28;20020;-63
2023/04/01 11:18:33;;;;;;;1.95;0.70;;;;;;;;;;5078259;28;20403;-64
2023/04/01 11:21:04;;;;;;;2.25;0.60;;;;;;;;;;5083687;28;20446;-64
2023/04/01 11:23:42;;;;;;;2.13;0.50;;;;;;;;;;5084341;28;20410;-65
2023/04/01 11:26:17;;;;;;;2.08;0.60;;;;;;;;;;5073441;28;20527;-63
2023/04/01 11:29:01;;;;;;;2.78;0.60;;;;;;;;;;5073436;28;20024;-64
2023/04/01 11:31:27;;;;;;;3.00;0.82;;;;;;;;;;5093753;28;20397;-64
2023/04/01 11:33:55;;;;;;;3.70;0.80;;;;;;;;;;5082473;28;20108;-65
2023/04/01 11:36:25;;;;;;;3.75;0.80;;;;;;;;;;5083795;28;20042;-63
2023/04/01 11:39:14;;;;;;;3.95;0.77;;;;;;;;;;5076009;28;20505;-63
2023/04/01 11:41:49;;;;;;;2.10;0.55;;;;;;;;;;5077152;28;20035;-64
2023/04/01 11:44:19;;;;;;;2.00;0.40;;;;;;;;;;5071446;28;20093;-63
2023/04/01 11:46:51;;;;;;;2.38;0.57;;;;;;;;;;5075194;28;20028;-62
2023/04/01 11:49:23;;;;;;;2.42;0.50;;;;;;;;;;5079942;28;20088;-62
2023/04/01 11:51:55;;;;;;;1.40;0.35;;;;;;;;;;5093026;28;20033;-63
2023/04/01 11:54:38;;;;;;;0.65;0.35;;;;;;;;;;5074540;28;20111;-63
2023/04/01 11:57:03;;;;;;;2.92;0.70;;;;;;;;;;5090855;28;20023;-62
2023/04/01 12:00:00;;;;;;;2.47;0.43;;;;;;;;;;5077893;28;21490;-63
2023/04/01 12:02:45;;;;;;;1.20;0.40;;;;;;;;;;5042201;28;20027;-64
2023/04/01 12:05:22;;;;;;;2.33;0.50;;;;;;;;;;5066990;28;20032;-63
2023/04/01 12:08:06;;;;;;;2.05;0.43;;;;;;;;;;5077118;28;20024;-62
2023/04/01 12:10:39;;;;;;;1.35;0.40;;;;;;;;;;5082047;28;20032;-62
2023/04/01 12:13:07;;;;;;;1.65;0.40;;;;;;;;;;5079535;28;20747;-62
2023/04/01 12:15:41;;;;;;;2.13;0.47;;;;;;;;;;5091863;28;20055;-62
2023/04/01 12:18:20;;;;;;;1.90;0.40;;;;;;;;;;5072116;28;20552;-62
2023/04/01 12:20:49;;;;;;;1.60;0.40;;;;;;;;;;5092007;28;20131;-61
2023/04/01 12:23:14;;;;;;;3.60;0.40;;;;;;;;;;5094273;28;20039;-62
2023/04/01 12:25:59;;;;;;;1.03;0.40;;;;;;;;;;5078825;28;20487;-62
2023/04/01 12:28:43;;;;;;;1.50;0.30;;;;;;;;;;5078184;28;20028;-61
2023/04/01 12:31:27;;;;;;;2.38;0.40;;;;;;;;;;5082831;28;20024;-61
2023/04/01 12:34:10;;;;;;;1.77;0.40;;;;;;;;;;5080144;28;20432;-62
2023/04/01 12:36:49;;;;;;;1.98;0.55;;;;;;;;;;5081135;28;20032;-64
2023/04/01 12:39:40;;;;;;;1.80;0.57;;;;;;;;;;5085127;28;20065;-63
2023/04/01 12:42:23;;;;;;;2.05;0.68;;;;;;;;;;5078442;28;20059;-64
2023/04/01 12:45:02;;;;;;;1.60;0.47;;;;;;;;;;5078043;28;20062;-64
2023/04/01 12:47:38;;;;;;;2.95;0.60;;;;;;;;;;5069349;28;20031;-64
2023/04/01 12:50:21;;;;;;;2.95;0.80;;;;;;;;;;5077102;28;20368;-64
2023/04/01 12:53:02;;;;;;;2.67;0.40;;;;;;;;;;5087050;28;20119;-64
2023/04/01 12:55:36;;;;;;;2.63;0.70;;;;;;;;;;5074575;28;20196;-63
2023/04/01 12:58:21;;;;;;;3.33;0.70;;;;;;;;;;5085452;28;20027;-68
2023/04/01 13:01:06;;;;;;;3.33;0.90;;;;;;;;;;5076410;28;20505;-63
2023/04/01 13:03:32;;;;;;;2.70;0.60;;;;;;;;;;5078406;28;20025;-64
2023/04/01 13:06:16;;;;;;;2.72;0.50;;;;;;;;;;5086790;28;20241;-64
2023/04/01 13:08:46;;;;;;;2.08;0.60;;;;;;;;;;5087761;28;20478;-62
2023/04/01 13:11:20;;;;;;;2.63;0.60;;;;;;;;;;5082305;28;20081;-64
2023/04/01 13:14:04;;;;;;;2.42;0.60;;;;;;;;;;5081198;28;20490;-63
2023/04/01 13:16:29;;;;;;;;;;;;;;;;;;5079398;28;20539;-63
2023/04/01 13:19:02;;;;;;;3.58;0.63;;;;;;;;;;5083518;28;20406;-63
2023/04/01 13:21:45;;;;;;;2.75;0.70;;;;;;;;;;5085114;28;20031;-63
2023/04/01 13:24:13;;;;;;;2.35;0.55;;;;;;;;;;5090694;28;20023;-63
2023/04/01 13:26:45;;;;;;;2.35;0.50;;;;;;;;;;5085999;28;20028;-64
2023/04/01 13:29:16;;;;;;;2.53;0.68;;;;;;;;;;5088873;28;20026;-63
2023/04/01 13:31:45;;;;;;;3.75;0.73;;;;;;;;;;5076419;28;20028;-63
2023/04/01 13:34:29;;;;;;;3.03;0.90;;;;;;;;;;5081569;28;20031;-63
2023/04/01 13:36:56;;;;;;;3.60;1.00;;;;;;;;;;5084247;28;20023;-64
2023/04/01 13:39:27;;;;;;;3.88;1.40;;;;;;;;;;5090369;28;20089;-64
2023/04/01 13:41:53;;;;;;;3.75;1.20;;;;;;;;;;5086923;28;20097;-66
2023/04/01 13:44:32;;;;;;;3.92;1.00;;;;;;;;;;5088850;28;20031;-63
2023/04/01 13:47:16;;;;;;;1.90;0.45;;;;;;;;;;5093758;28;20606;-63
2023/04/01 13:50:01;;;;;;;3.95;1.65;;;;;;;;;;5088176;28;20554;-63
2023/04/01 13:52:32;;;;;;;6.63;2.90;;;;;;;;;;5070410;28;20039;-64
2023/04/01 13:55:20;;;;;;;4.05;0.90;;;;;;;;;;5088336;28;20382;-64
2023/04/01 13:58:12;;;;;;;1.33;0.50;;;;;;;;;;5087954;28;20111;-64
2023/04/01 14:00:43;;;;;;;2.53;0.40;;;;;;;;;;5083084;28;20067;-64
2023/04/01 14:03:14;;;;;;;1.75;0.50;;;;;;;;;;5083942;28;20012;-64
2023/04/01 14:05:46;;;;;;;0.73;0.20;;;;;;;;;;5084636;28;20031;-64
2023/04/01 14:08:21;;;;;;;1.70;0.45;;;;;;;;;;5079143;28;20028;-64
2023/04/01 14:10:55;;;;;;;2.92;0.60;;;;;;;;;;5077934;28;20027;-65
2023/04/01 14:13:29;;;;;;;4.93;1.45;;;;;;;;;;5084355;28;20058;-63
2023/04/01 14:16:14;;;;;;;3.35;0.90;;;;;;;;;;5086769;28;20479;-64
2023/04/01 14:18:39;;;;;;;7.97;2.75;;;;;;;;;;5077236;28;20108;-63
2023/04/01 14:21:11;;;;;;;6.07;2.10;;;;;;;;;;5077856;28;20796;-63
2023/04/01 14:23:48;;;;;;;10.90;4.43;;;;;;;;;;5082014;28;20579;-63
2023/04/01 14:26:16;;;;;;;10.85;4.50;;;;;;;;;;5082183;28;20550;-64
2023/04/01 14:28:51;;;;;;;5.82;1.83;;;;;;;;;;5085097;28;20643;-62
2023/04/01 14:31:16;;;;;;;0.75;0.30;;;;;;;;;;5082897;28;20055;-63
2023/04/01 14:33:42;;;;;;;2.20;0.47;;;;;;;;;;5083043;28;20055;-63
2023/04/01 14:36:26;;;;;;;1.27;0.47;;;;;;;;;;5084910;28;20035;-64
2023/04/01 14:39:10;;;;;;;3.40;0.90;;;;;;;;;;5082174;28;20019;-63
2023/04/01 14:41:43;;;;;;;1.48;0.45;;;;;;;;;;5091855;28;20024;-64
2023/04/01 14:44:16;;;;;;;13.15;4.00;;;;;;;;;;5088242;28;20069;-63
2023/04/01 14:47:00;;;;;;;2.05;0.70;;;;;;;;;;5077586;28;20027;-63
2023/04/01 14:49:34;;;;;;;1.10;0.40;;;;;;;;;;5083141;28;20027;-63
2023/04/01 14:52:17;;;;;;;3.25;1.10;;;;;;;;;;5079824;28;20017;-65
2023/04/01 14:54:44;;;;;;;3.42;1.00;;;;;;;;;;5082020;28;20395;-64
2023/04/01 14:57:23;;;;;;;3.13;0.90;;;;;;;;;;5080871;28;20020;-63
2023/04/01 14:59:51;;;;;;;1.85;0.60;;;;;;;;;;5086768;28;20447;-64
2023/04/01 15:02:16;;;;;;;3.10;0.93;;;;;;;;;;5084268;28;20017;-63
2023/04/01 15:05:10;;;;;;;2.63;0.75;;;;;;;;;;5085554;28;20020;-63
2023/04/01 15:07:47;;;;;;;1.48;0.43;;;;;;;;;;5075994;28;20028;-64
2023/04/01 15:10:19;;;;;;;1.38;0.50;;;;;;;;;;5090135;28;20028;-63